Strona główna
METAR-TAF:

METAR-TAF

Lotnisko :

Flemingsburg, Kentucky, Stany Zjednoczone

Szerokość geograficzna: 38-32-30N, Długość geograficzna: 083-44-36W, wysokość: 278 m

Aktualna obserwacja pogody

Raport powstał 19 minut temu, godzina 06:15 UTC
Wiatr 7 kt od południowo-południowy wschód
Temperatura 21°C
Wilgotność 83%
Ciśnienie 1015 hPa
Widzialność: 16.1 km
Przerywane chmury na wysokości 12000 ft

METAR: KFGX 280615Z AUTO 15007KT 10SM BKN120 21/18 A2998 RMK AO2 T02050180

czas: 02:34 (06:34 UTC)


TAF: brakujący

Obserwacja i prognoza pogody dla ponad 4000 lotnisk (raport METAR i TAF).

Dostępne stacje oznaczono żółtymi i czerwonymi punktami na mapie.

Najedź kursorem aby zobaczyć nazwę stacji.

Kliknij aby zobaczyć obserwacje i prognozy pogody.

Aby zmienić mapę: kliknij na zielony przycisk z czarnym krzyżykiem, aby powiększyć; na zielony przycisk z myślnikiem, aby pomniejszyć; na zielone strzałki, aby przejść do map sąsiednich.


METAR-TAF: